createdAt,value
2018-06-07T00:00:22.064Z,101422.67
2018-06-07T00:05:14.934Z,101410.37
2018-06-07T00:10:07.836Z,101401.61
2018-06-07T00:15:00.739Z,101397.81
2018-06-07T00:19:53.610Z,101401.36
2018-06-07T00:24:46.536Z,101404.36
2018-06-07T00:29:39.474Z,101404.61
2018-06-07T00:34:32.316Z,101405.38
2018-06-07T00:39:25.220Z,101403.98
2018-06-07T00:44:18.209Z,101405.05
2018-06-07T00:49:11.055Z,101399.03
2018-06-07T00:54:04.098Z,101403.11
2018-06-07T00:58:57.115Z,101403.62
2018-06-07T01:03:50.105Z,101398.19
2018-06-07T01:08:43.127Z,101390.27
2018-06-07T01:13:35.996Z,101382.07
2018-06-07T01:18:28.985Z,101385.59
2018-06-07T01:23:21.932Z,101385.87
2018-06-07T01:28:14.797Z,101385.55
2018-06-07T01:33:37.525Z,101390.98
2018-06-07T01:38:47.716Z,101390.95
2018-06-07T01:43:40.578Z,101381.37
2018-06-07T01:48:33.421Z,101376.37
2018-06-07T01:53:26.406Z,101369.23
2018-06-07T01:58:19.261Z,101359.41
2018-06-07T02:03:12.259Z,101358.56
2018-06-07T02:08:05.273Z,101349.80
2018-06-07T02:12:58.176Z,101342.44
2018-06-07T02:17:51.042Z,101348.69
2018-06-07T02:22:43.893Z,101353.57
2018-06-07T02:27:36.781Z,101345.12
2018-06-07T02:32:29.643Z,101352.19
2018-06-07T02:37:22.616Z,101352.41
2018-06-07T02:42:15.475Z,101359.73
2018-06-07T02:47:08.356Z,101356.68
2018-06-07T02:52:01.265Z,101370.83
2018-06-07T02:56:54.090Z,101365.34
2018-06-07T03:01:47.038Z,101367.76
2018-06-07T03:06:39.926Z,101369.31
2018-06-07T03:11:32.742Z,101367.70
2018-06-07T03:16:25.754Z,101374.80
2018-06-07T03:21:18.673Z,101375.61
2018-06-07T03:26:11.587Z,101384.55
2018-06-07T03:31:04.386Z,101388.09
2018-06-07T03:35:57.343Z,101388.63
2018-06-07T03:40:50.278Z,101394.87
2018-06-07T03:45:43.188Z,101384.77
2018-06-07T03:50:36.137Z,101400.57
2018-06-07T03:55:29.102Z,101396.45
2018-06-07T04:00:22.013Z,101395.09
2018-06-07T04:05:14.982Z,101396.93
2018-06-07T04:10:07.836Z,101402.16
2018-06-07T04:15:00.670Z,101401.30
2018-06-07T04:19:53.582Z,101403.36
2018-06-07T04:24:46.519Z,101409.30
2018-06-07T04:29:39.453Z,101406.08
2018-06-07T04:34:32.349Z,101404.97
2018-06-07T04:39:25.297Z,101419.97
2018-06-07T04:44:18.333Z,101415.06
2018-06-07T04:49:11.247Z,101416.78
2018-06-07T04:54:04.235Z,101418.48
2018-06-07T04:58:57.170Z,101422.88
2018-06-07T05:03:50.061Z,101423.14
2018-06-07T05:08:43.037Z,101426.97
2018-06-07T05:13:35.978Z,101425.58
2018-06-07T05:18:28.840Z,101427.79
2018-06-07T05:23:21.723Z,101426.43
2018-06-07T05:28:14.603Z,101428.02
2018-06-07T05:33:07.579Z,101439.72
2018-06-07T05:38:00.522Z,101436.44
2018-06-07T05:42:53.445Z,101441.05
2018-06-07T05:47:46.483Z,101444.06
2018-06-07T05:52:39.557Z,101441.38
2018-06-07T05:57:32.459Z,101451.78
2018-06-07T06:02:25.449Z,101445.87
2018-06-07T06:07:18.540Z,101438.30
2018-06-07T06:12:11.532Z,101440.54
2018-06-07T06:17:04.534Z,101447.47
2018-06-07T06:21:57.356Z,101446.70
2018-06-07T06:26:50.283Z,101442.91
2018-06-07T06:31:43.122Z,101439.45
2018-06-07T06:36:35.969Z,101443.30
2018-06-07T06:41:28.846Z,101436.80
2018-06-07T06:46:21.808Z,101433.83
2018-06-07T06:51:14.877Z,101429.26
2018-06-07T06:56:07.806Z,101437.24
2018-06-07T07:01:00.710Z,101445.77
2018-06-07T07:05:53.690Z,101443.92
2018-06-07T07:10:46.662Z,101444.50
2018-06-07T07:15:39.554Z,101439.92
2018-06-07T07:20:32.630Z,101439.99
2018-06-07T07:25:25.594Z,101445.61
2018-06-07T07:30:18.550Z,101438.79
2018-06-07T07:35:11.498Z,101436.43
2018-06-07T07:40:04.437Z,101440.30
2018-06-07T07:44:57.313Z,101439.89
2018-06-07T07:49:50.270Z,101438.42
2018-06-07T07:54:43.734Z,101444.10
2018-06-07T07:59:36.728Z,101442.22
2018-06-07T08:04:29.627Z,101439.39
2018-06-07T08:09:22.528Z,101447.00
2018-06-07T08:14:15.464Z,101441.00
2018-06-07T08:19:08.426Z,101443.11
2018-06-07T08:24:01.342Z,101431.54
2018-06-07T08:28:54.401Z,101427.11
2018-06-07T08:33:47.301Z,101430.39
2018-06-07T08:38:40.262Z,101426.13
2018-06-07T08:43:34.160Z,101428.85
2018-06-07T08:48:27.159Z,101426.66
2018-06-07T08:53:20.033Z,101429.97
2018-06-07T08:58:12.945Z,101424.23
2018-06-07T09:03:05.854Z,101419.65
2018-06-07T09:07:58.795Z,101420.53
2018-06-07T09:12:51.651Z,101418.27
2018-06-07T09:17:44.757Z,101419.02
2018-06-07T09:22:37.623Z,101404.68
2018-06-07T09:27:30.494Z,101403.83
2018-06-07T09:32:23.418Z,101408.91
2018-06-07T09:37:16.277Z,101402.77
2018-06-07T09:42:09.228Z,101395.80
2018-06-07T09:47:02.086Z,101389.41
2018-06-07T09:51:55.007Z,101384.27
2018-06-07T09:56:48.155Z,101376.81
2018-06-07T10:01:41.172Z,101369.69
2018-06-07T10:06:34.120Z,101369.13
2018-06-07T10:11:26.968Z,101365.91
2018-06-07T10:16:20.072Z,101362.80
2018-06-07T10:21:12.872Z,101363.52
2018-06-07T10:26:05.737Z,101355.91
2018-06-07T10:30:58.678Z,101358.77
2018-06-07T10:35:51.595Z,101354.44
2018-06-07T10:40:44.463Z,101348.17
2018-06-07T10:45:37.338Z,101347.81
2018-06-07T10:50:30.306Z,101335.61
2018-06-07T10:55:23.198Z,101338.17
2018-06-07T11:00:16.143Z,101351.49
2018-06-07T11:05:09.069Z,101335.95
2018-06-07T11:10:01.947Z,101333.12
2018-06-07T11:14:54.842Z,101324.16
2018-06-07T11:19:47.830Z,101325.37
2018-06-07T11:24:40.675Z,101315.28
2018-06-07T11:29:33.568Z,101312.18
2018-06-07T11:34:26.483Z,101296.81
2018-06-07T11:39:19.475Z,101301.63
2018-06-07T11:44:12.481Z,101293.67
2018-06-07T11:49:05.402Z,101295.81
2018-06-07T11:53:58.232Z,101282.42
2018-06-07T11:58:51.103Z,101284.49
2018-06-07T12:03:43.974Z,101277.77
2018-06-07T12:08:36.893Z,101270.89
2018-06-07T12:13:29.788Z,101263.47
2018-06-07T12:18:22.662Z,101263.27
2018-06-07T12:23:15.532Z,101265.91
2018-06-07T12:28:08.394Z,101254.44
2018-06-07T12:33:01.352Z,101246.83
2018-06-07T12:37:54.411Z,101244.67
2018-06-07T12:42:47.236Z,101242.67
2018-06-07T12:47:40.973Z,101239.45
2018-06-07T12:52:33.906Z,101231.30
2018-06-07T12:57:26.722Z,101223.91
2018-06-07T13:02:19.661Z,101223.55
2018-06-07T13:07:12.528Z,101219.28
2018-06-07T13:12:05.505Z,101218.35
2018-06-07T13:16:58.434Z,101212.92
2018-06-07T13:21:51.741Z,101209.80
2018-06-07T13:26:44.977Z,101207.38
2018-06-07T13:31:37.819Z,101202.86
2018-06-07T13:36:30.734Z,101197.20
2018-06-07T13:41:23.520Z,101190.50
2018-06-07T13:46:16.537Z,101188.39
2018-06-07T13:51:09.511Z,101184.48
2018-06-07T13:56:02.520Z,101188.52
2018-06-07T14:00:55.360Z,101173.13
2018-06-07T14:05:48.359Z,101170.25
2018-06-07T14:10:41.392Z,101163.43
2018-06-07T14:15:34.230Z,101163.66
2018-06-07T14:20:27.084Z,101161.47
2018-06-07T14:25:19.998Z,101168.52
2018-06-07T14:30:13.043Z,101159.50
2018-06-07T14:35:05.914Z,101161.13
2018-06-07T14:39:58.809Z,101161.11
2018-06-07T14:44:51.620Z,101143.09
2018-06-07T14:49:44.500Z,101134.28
2018-06-07T14:54:37.360Z,101130.21
2018-06-07T14:59:30.287Z,101126.05
2018-06-07T15:04:23.163Z,101120.50
2018-06-07T15:09:16.189Z,101117.72
2018-06-07T15:14:09.198Z,101110.08
2018-06-07T15:19:02.517Z,101101.09
2018-06-07T15:23:55.369Z,101104.44
2018-06-07T15:28:48.316Z,101104.34
2018-06-07T15:33:41.141Z,101098.34
2018-06-07T15:38:39.391Z,101095.67
2018-06-07T15:43:32.351Z,101096.83
2018-06-07T15:48:25.212Z,101090.91
2018-06-07T15:53:18.090Z,101088.73
2018-06-07T15:58:11.008Z,101091.50
2018-06-07T16:03:04.013Z,101086.64
2018-06-07T16:07:56.896Z,101085.48
2018-06-07T16:12:49.788Z,101086.66
2018-06-07T16:17:42.699Z,101074.37
2018-06-07T16:22:35.617Z,101074.37
2018-06-07T16:27:28.420Z,101076.72
2018-06-07T16:32:21.408Z,101069.31
2018-06-07T16:37:14.297Z,101067.71
2018-06-07T16:42:07.168Z,101072.58
2018-06-07T16:47:00.081Z,101079.88
2018-06-07T16:51:53.043Z,101084.48
2018-06-07T16:56:45.859Z,101089.67
2018-06-07T17:01:39.069Z,101090.81
2018-06-07T17:06:32.013Z,101089.16
2018-06-07T17:11:24.877Z,101078.31
2018-06-07T17:16:17.828Z,101080.17
2018-06-07T17:21:10.755Z,101073.22
2018-06-07T17:26:03.675Z,101077.01
2018-06-07T17:30:56.516Z,101073.09
2018-06-07T17:35:49.473Z,101072.25
2018-06-07T17:40:42.441Z,101070.25
2018-06-07T17:45:35.413Z,101076.34
2018-06-07T17:50:28.262Z,101071.13
2018-06-07T17:56:50.784Z,101077.91
2018-06-07T18:01:43.633Z,101079.62
2018-06-07T18:06:36.515Z,101080.49
2018-06-07T18:11:29.377Z,101080.14
2018-06-07T18:16:22.245Z,101086.45
2018-06-07T18:21:15.184Z,101088.16
2018-06-07T18:26:08.117Z,101084.65
2018-06-07T18:31:00.977Z,101080.08
2018-06-07T18:35:53.850Z,101077.86
2018-06-07T18:40:46.718Z,101077.69
2018-06-07T18:45:39.581Z,101085.91
2018-06-07T18:50:32.484Z,101079.39
2018-06-07T18:55:25.337Z,101088.48
2018-06-07T19:00:18.204Z,101078.11
2018-06-07T19:05:11.621Z,101082.06
2018-06-07T19:10:12.730Z,101086.25
2018-06-07T19:15:09.893Z,101090.28
2018-06-07T19:21:07.220Z,101091.78
2018-06-07T19:26:05.840Z,101108.79
2018-06-07T19:30:58.867Z,101103.50
2018-06-07T19:35:51.831Z,101107.67
2018-06-07T19:45:51.964Z,101122.63
2018-06-07T19:50:45.210Z,101123.94
2018-06-07T19:55:38.149Z,101124.26
2018-06-07T20:00:31.056Z,101123.34
2018-06-07T20:05:24.132Z,101129.44
2018-06-07T20:10:17.141Z,101127.77
2018-06-07T20:15:10.086Z,101134.48
2018-06-07T20:20:03.722Z,101140.06
2018-06-07T20:24:56.620Z,101142.05
2018-06-07T20:29:49.478Z,101140.91
2018-06-07T20:34:42.475Z,101140.89
2018-06-07T20:39:35.472Z,101137.54
2018-06-07T20:44:28.371Z,101142.09
2018-06-07T20:49:21.179Z,101142.68
2018-06-07T20:54:14.119Z,101145.09
2018-06-07T20:59:07.066Z,101143.98
2018-06-07T21:03:59.868Z,101137.62
2018-06-07T21:08:52.783Z,101140.24
2018-06-07T21:13:45.670Z,101137.19
2018-06-07T21:18:38.516Z,101140.34
2018-06-07T21:23:31.418Z,101134.50
2018-06-07T21:28:24.335Z,101131.09
2018-06-07T21:33:17.250Z,101125.98
2018-06-07T21:38:10.182Z,101123.34
2018-06-07T21:43:03.107Z,101119.97
2018-06-07T21:47:55.873Z,101119.02
2018-06-07T21:52:48.773Z,101117.58
2018-06-07T21:57:41.616Z,101115.83
2018-06-07T22:02:34.640Z,101110.25
2018-06-07T22:07:27.521Z,101114.02
2018-06-07T22:12:20.394Z,101109.74
2018-06-07T22:17:13.316Z,101109.88
2018-06-07T22:22:06.245Z,101109.72
2018-06-07T22:26:59.094Z,101108.56
2018-06-07T22:31:51.987Z,101104.09
2018-06-07T22:36:44.922Z,101104.78
2018-06-07T22:41:37.789Z,101108.48
2018-06-07T22:46:30.589Z,101099.55
2018-06-07T22:51:23.423Z,101097.75
2018-06-07T22:56:16.325Z,101095.16
2018-06-07T23:01:09.182Z,101097.73
2018-06-07T23:06:02.124Z,101089.44
2018-06-07T23:10:55.058Z,101099.91
2018-06-07T23:15:47.993Z,101096.24
2018-06-07T23:20:40.863Z,101085.89
2018-06-07T23:25:33.736Z,101089.83
2018-06-07T23:30:26.674Z,101080.03
2018-06-07T23:35:19.619Z,101075.22
2018-06-07T23:40:12.520Z,101076.37
2018-06-07T23:45:05.369Z,101071.28
2018-06-07T23:49:58.228Z,101068.91
2018-06-07T23:54:51.130Z,101066.27
2018-06-07T23:59:44.042Z,101061.12
